ADDS METAR Data INFO
IDs: Format: Raw Decoded Include TAF

Data at: 0918 UTC 13 Dec 2017

KLXL 130855Z AUTO 00000KT 10SM SCT110 M04/M07 A2938 RMK AO2
KLXL 130835Z AUTO 00000KT 10SM SCT075 SCT090 BKN110 M04/M07 A2939 RMK AO2
KLXL 130815Z AUTO 12004KT 10SM BKN090 OVC120 M04/M07 A2939 RMK AO2
KLXL 130755Z AUTO 13005KT 10SM BKN090 BKN120 M05/M07 A2940 RMK AO2
KLXL 130735Z AUTO 11004KT 10SM SCT090 SCT120 M05/M07 A2942 RMK AO2
KLXL 130715Z AUTO 12003KT 10SM BKN110 M05/M07 A2944 RMK AO2
KLXL 130655Z AUTO 12004KT 10SM OVC110 M05/M07 A2944 RMK AO2
KLXL 130635Z AUTO 12005KT 10SM OVC110 M06/M08 A2945 RMK AO2
KLXL 130615Z AUTO 12005KT 10SM BKN120 M06/M08 A2947 RMK AO2
KLXL 130555Z AUTO 13004KT 10SM CLR M06/M09 A2949 RMK AO2
KLXL 130535Z AUTO 13004KT 10SM CLR M07/M10 A2950 RMK AO2
KLXL 130515Z AUTO 14005KT 10SM CLR M07/M10 A2953 RMK AO2
KLXL 130455Z AUTO 13004KT 10SM CLR M07/M10 A2954 RMK AO2
KLXL 130435Z AUTO 13005KT 10SM CLR M07/M10 A2957 RMK AO2
KLXL 130415Z AUTO 13006KT 10SM CLR M07/M11 A2958 RMK AO2
KLXL 130355Z AUTO 13005KT 10SM CLR M07/M11 A2960 RMK AO2
KLXL 130335Z AUTO 14006KT 10SM SCT060 M07/M11 A2963 RMK AO2
KLXL 130315Z AUTO 14008KT 10SM OVC060 M07/M11 A2964 RMK AO2
KLXL 130255Z AUTO 14005KT 10SM OVC070 M07/M11 A2967 RMK AO2
KLXL 130235Z AUTO 14006KT 10SM BKN070 M07/M11 A2969 RMK AO2
KLXL 130215Z AUTO 14006KT 10SM OVC070 M07/M11 A2971 RMK AO2
KLXL 130155Z AUTO 14007KT 10SM OVC070 M07/M11 A2972 RMK AO2
KLXL 130135Z AUTO 13006KT 10SM SCT050 BKN070 OVC080 M07/M11 A2974 RMK AO2
KLXL 130115Z AUTO 12007KT 10SM SCT060 BKN070 OVC080 M07/M11 A2976 RMK AO2
KLXL 130055Z AUTO 13005KT 10SM SCT060 OVC070 M07/M11 A2976 RMK AO2
KLXL 130035Z AUTO 13006KT 10SM SCT060 OVC070 M07/M11 A2978 RMK AO2
KLXL 130015Z AUTO 13006KT 10SM OVC060 M07/M11 A2979 RMK AO2
KLXL 122355Z AUTO 12007KT 10SM OVC070 M06/M11 A2980 RMK AO2
KLXL 122335Z AUTO 12007KT 10SM OVC070 M06/M11 A2981 RMK AO2
KLXL 122315Z AUTO 13005KT 10SM BKN070 BKN095 M07/M11 A2982 RMK AO2
KLXL 122255Z AUTO 13005KT 10SM BKN070 M07/M11 A2983 RMK AO2
KLXL 122235Z AUTO 13004KT 10SM CLR M06/M11 A2984 RMK AO2
KLXL 122215Z AUTO 13004KT 10SM BKN015 M06/M11 A2986 RMK AO2
KLXL 122155Z AUTO 14006KT 10SM OVC015 M06/M11 A2986 RMK AO2
KLXL 122135Z AUTO 13005KT 10SM OVC015 M06/M11 A2987 RMK AO2
KLXL 122115Z AUTO 16005KT 10SM BKN015 BKN095 M06/M11 A2989 RMK AO2
KLXL 122055Z AUTO 15007KT 10SM SCT015 SCT029 SCT075 M06/M11 A2990 RMK AO2
KLXL 122035Z AUTO 15006KT 10SM BKN029 BKN085 BKN100 M06/M11 A2991 RMK AO2
KLXL 122015Z AUTO 15007KT 10SM SCT031 OVC095 M06/M11 A2993 RMK AO2
KLXL 121955Z AUTO 15007KT 10SM OVC095 M07/M11 A2995 RMK AO2
KLXL 121935Z AUTO 14005KT 10SM SCT018 OVC095 M07/M11 A2996 RMK AO2
KLXL 121915Z AUTO 16007KT 10SM OVC020 M08/M11 A2997 RMK AO2
KLXL 121855Z AUTO 16006KT 10SM OVC022 M08/M12 A2999 RMK AO2
KLXL 121835Z AUTO 16004KT 3SM -SN BKN024 OVC028 M08/M12 A3001 RMK AO2
KLXL 121815Z AUTO 17003KT 1 3/4SM -SN SCT008 OVC029 M09/M12 A3003 RMK AO2
KLXL 121755Z AUTO 19006KT 1 1/2SM -SN OVC010 M09/M12 A3004 RMK AO2
KLXL 121735Z AUTO 18005KT 1 3/4SM -SN SCT008 OVC012 M10/M12 A3005 RMK AO2
KLXL 121715Z AUTO 15005KT 2 1/2SM -SN SCT007 OVC014 M10/M12 A3007 RMK AO2
KLXL 121655Z AUTO 15004KT 4SM HZ SCT007 OVC016 M10/M13 A3010 RMK AO2
KLXL 121635Z AUTO 17003KT 4SM HZ OVC016 M11/M14 A3011 RMK AO2
KLXL 121615Z AUTO 17003KT 10SM BKN014 OVC019 M11/M15 A3012 RMK AO2
KLXL 121555Z AUTO 16005KT 7SM -SN BKN014 OVC022 M11/M15 A3013 RMK AO2
KLXL 121535Z AUTO 16004KT 7SM OVC022 M12/M15 A3014 RMK AO2
KLXL 121515Z AUTO 16003KT 10SM OVC024 M12/M16 A3014 RMK AO2
KLXL 121455Z AUTO 00000KT 10SM BKN024 OVC048 M12/M16 A3015 RMK AO2
KLXL 121435Z AUTO 14003KT 10SM OVC050 M13/M17 A3016 RMK AO2
KLXL 121415Z AUTO 00000KT 10SM SCT012 SCT019 OVC048 M13/M17 A3016 RMK AO2
KLXL 121355Z AUTO 00000KT 10SM BKN014 OVC019 M14/M18 A3016 RMK AO2
KLXL 121335Z AUTO 00000KT 10SM BKN015 OVC047 M14/M18 A3018 RMK AO2
KLXL 121315Z AUTO 00000KT 10SM BKN017 BKN060 OVC070 M15/M18 A3018 RMK AO2
KLXL 121255Z AUTO 00000KT 10SM SCT060 OVC080 M16/M20 A3018 RMK AO2
KLXL 121235Z AUTO 00000KT 10SM BKN075 BKN080 M17/M21 A3020 RMK AO2
KLXL 121215Z AUTO 00000KT 10SM SCT075 M17/M21 A3020 RMK AO2
KLXL 121155Z AUTO 00000KT 10SM SCT085 M17/M21 A3021 RMK AO2
KLXL 121135Z AUTO 00000KT 10SM BKN085 M17/M21 A3022 RMK AO2
KLXL 121115Z AUTO 00000KT 10SM BKN085 M17/M21 A3023 RMK AO2
KLXL 121055Z AUTO 00000KT 10SM CLR M17/M21 A3024 RMK AO2
KLXL 121035Z AUTO 00000KT 10SM CLR M17/M21 A3024 RMK AO2
KLXL 121015Z AUTO 00000KT 10SM CLR M17/M21 A3024 RMK AO2
KLXL 120955Z AUTO 00000KT 10SM CLR M17/M21 A3024 RMK AO2
KLXL 120935Z AUTO 00000KT 10SM CLR M16/M20 A3024 RMK AO2
KLXL 120915Z AUTO 00000KT 10SM CLR M16/M20 A3025 RMK AO2
KLXL 120855Z AUTO 30003KT 10SM CLR M16/M20 A3026 RMK AO2
KLXL 120835Z AUTO 30004KT 10SM CLR M16/M20 A3026 RMK AO2
KLXL 120815Z AUTO 30004KT 10SM CLR M15/M20 A3026 RMK AO2
KLXL 120755Z AUTO 30004KT 10SM CLR M15/M20 A3025 RMK AO2
KLXL 120735Z AUTO 00000KT 10SM CLR M15/M20 A3025 RMK AO2
KLXL 120715Z AUTO 30004KT 10SM CLR M15/M19 A3025 RMK AO2
KLXL 120655Z AUTO 30004KT 10SM CLR M14/M19 A3026 RMK AO2
KLXL 120635Z AUTO 30004KT 10SM CLR M14/M19 A3026 RMK AO2
KLXL 120615Z AUTO 30005KT 10SM CLR M14/M18 A3026 RMK AO2
KLXL 120555Z AUTO 30006KT 10SM CLR M13/M18 A3026 RMK AO2
KLXL 120535Z AUTO 30005KT 10SM CLR M13/M18 A3026 RMK AO2
KLXL 120515Z AUTO 31004KT 10SM CLR M13/M18 A3026 RMK AO2
KLXL 120455Z AUTO 31004KT 10SM CLR M12/M17 A3025 RMK AO2
KLXL 120435Z AUTO 32006KT 10SM CLR M12/M17 A3025 RMK AO2
KLXL 120415Z AUTO 32005KT 10SM CLR M12/M17 A3025 RMK AO2
KLXL 120355Z AUTO 32007KT 283V343 10SM CLR M11/M16 A3025 RMK AO2
KLXL 120335Z AUTO 31007KT 283V353 10SM CLR M11/M16 A3024 RMK AO2
KLXL 120315Z AUTO 31007KT 10SM CLR M11/M16 A3024 RMK AO2
KLXL 120255Z AUTO 31006KT 10SM CLR M10/M16 A3023 RMK AO2
KLXL 120235Z AUTO 31008G15KT 10SM CLR M10/M16 A3022 RMK AO2
KLXL 120215Z AUTO 31007G15KT 10SM CLR M10/M15 A3022 RMK AO2
KLXL 120155Z AUTO 31008KT 10SM CLR M09/M15 A3021 RMK AO2
KLXL 120135Z AUTO 32011G17KT 10SM CLR M08/M15 A3021 RMK AO2
KLXL 120115Z AUTO 31008G16KT 10SM CLR M08/M14 A3020 RMK AO2
KLXL 120055Z AUTO 33011G19KT 10SM CLR M07/M13 A3019 RMK AO2
KLXL 120035Z AUTO 31007KT 293V353 10SM CLR M07/M13 A3017 RMK AO2
KLXL 120015Z AUTO 32010G17KT 10SM CLR M06/M13 A3016 RMK AO2
KLXL 112355Z AUTO 32009G14KT 10SM CLR M06/M13 A3015 RMK AO2
KLXL 112335Z AUTO 31006KT 10SM CLR M06/M14 A3014 RMK AO2
KLXL 112315Z AUTO 32008KT 293V353 10SM CLR M05/M14 A3012 RMK AO2
KLXL 112255Z AUTO 32005KT 10SM CLR M05/M13 A3011 RMK AO2
KLXL 112235Z AUTO 33008G19KT 10SM CLR M05/M13 A3009 RMK AO2
KLXL 112215Z AUTO 32011G17KT 283V353 10SM SCT028 SCT033 M04/M13 A3008 RMK AO2
KLXL 112155Z AUTO 34008KT 303V003 10SM BKN028 M03/M12 A3007 RMK AO2